sensor_id;sensor_type;location;lat;lon;timestamp;temperature;humidity
12164;DHT22;6145;50.192;10.064;2024-03-08T00:01:15;2.90;88.60
12164;DHT22;6145;50.192;10.064;2024-03-08T00:03:44;2.90;88.60
12164;DHT22;6145;50.192;10.064;2024-03-08T00:06:12;2.90;88.60
12164;DHT22;6145;50.192;10.064;2024-03-08T00:08:39;2.90;88.60
12164;DHT22;6145;50.192;10.064;2024-03-08T00:11:06;2.90;88.60
12164;DHT22;6145;50.192;10.064;2024-03-08T00:13:33;2.90;88.70
12164;DHT22;6145;50.192;10.064;2024-03-08T00:16:00;2.90;88.70
12164;DHT22;6145;50.192;10.064;2024-03-08T00:18:27;2.80;88.70
12164;DHT22;6145;50.192;10.064;2024-03-08T00:20:55;2.90;89.00
12164;DHT22;6145;50.192;10.064;2024-03-08T00:23:23;2.90;89.00
12164;DHT22;6145;50.192;10.064;2024-03-08T00:25:50;2.90;88.80
12164;DHT22;6145;50.192;10.064;2024-03-08T00:28:16;2.80;89.00
12164;DHT22;6145;50.192;10.064;2024-03-08T00:30:44;2.80;89.00
12164;DHT22;6145;50.192;10.064;2024-03-08T00:33:12;2.70;89.10
12164;DHT22;6145;50.192;10.064;2024-03-08T00:35:38;2.70;89.30
12164;DHT22;6145;50.192;10.064;2024-03-08T00:38:05;2.70;89.40
12164;DHT22;6145;50.192;10.064;2024-03-08T00:40:34;2.70;89.30
12164;DHT22;6145;50.192;10.064;2024-03-08T00:43:00;2.70;89.30
12164;DHT22;6145;50.192;10.064;2024-03-08T00:45:29;2.60;89.30
12164;DHT22;6145;50.192;10.064;2024-03-08T00:47:56;2.60;89.50
12164;DHT22;6145;50.192;10.064;2024-03-08T00:50:23;2.60;89.70
12164;DHT22;6145;50.192;10.064;2024-03-08T00:52:49;2.60;89.70
12164;DHT22;6145;50.192;10.064;2024-03-08T00:55:16;2.60;89.70
12164;DHT22;6145;50.192;10.064;2024-03-08T00:57:44;2.50;89.70
12164;DHT22;6145;50.192;10.064;2024-03-08T01:00:12;2.50;89.80
12164;DHT22;6145;50.192;10.064;2024-03-08T01:02:39;2.40;89.90
12164;DHT22;6145;50.192;10.064;2024-03-08T01:05:06;2.40;89.90
12164;DHT22;6145;50.192;10.064;2024-03-08T01:07:34;2.30;90.00
12164;DHT22;6145;50.192;10.064;2024-03-08T01:10:01;2.30;90.00
12164;DHT22;6145;50.192;10.064;2024-03-08T01:12:28;2.30;90.00
12164;DHT22;6145;50.192;10.064;2024-03-08T01:14:56;2.30;90.20
12164;DHT22;6145;50.192;10.064;2024-03-08T01:17:23;2.20;90.20
12164;DHT22;6145;50.192;10.064;2024-03-08T01:19:50;2.20;90.40
12164;DHT22;6145;50.192;10.064;2024-03-08T01:22:17;2.20;90.30
12164;DHT22;6145;50.192;10.064;2024-03-08T01:24:44;2.20;90.40
12164;DHT22;6145;50.192;10.064;2024-03-08T01:27:11;2.30;90.50
12164;DHT22;6145;50.192;10.064;2024-03-08T01:29:38;2.20;90.40
12164;DHT22;6145;50.192;10.064;2024-03-08T01:32:06;2.20;90.80
12164;DHT22;6145;50.192;10.064;2024-03-08T01:34:33;2.20;90.60
12164;DHT22;6145;50.192;10.064;2024-03-08T01:37:00;2.20;90.60
12164;DHT22;6145;50.192;10.064;2024-03-08T01:39:27;2.10;90.60
12164;DHT22;6145;50.192;10.064;2024-03-08T01:41:53;2.10;91.00
12164;DHT22;6145;50.192;10.064;2024-03-08T01:44:20;2.10;90.60
12164;DHT22;6145;50.192;10.064;2024-03-08T01:46:48;2.10;90.80
12164;DHT22;6145;50.192;10.064;2024-03-08T01:49:19;2.10;90.90
12164;DHT22;6145;50.192;10.064;2024-03-08T01:51:48;2.00;90.90
12164;DHT22;6145;50.192;10.064;2024-03-08T01:54:16;2.00;90.90
12164;DHT22;6145;50.192;10.064;2024-03-08T01:56:45;2.00;90.90
12164;DHT22;6145;50.192;10.064;2024-03-08T01:59:12;2.00;90.90
12164;DHT22;6145;50.192;10.064;2024-03-08T02:01:40;1.90;90.90
12164;DHT22;6145;50.192;10.064;2024-03-08T02:04:07;1.90;91.00
12164;DHT22;6145;50.192;10.064;2024-03-08T02:06:35;1.90;91.00
12164;DHT22;6145;50.192;10.064;2024-03-08T02:09:03;1.80;91.00
12164;DHT22;6145;50.192;10.064;2024-03-08T02:11:31;1.80;91.10
12164;DHT22;6145;50.192;10.064;2024-03-08T02:13:58;1.70;91.30
12164;DHT22;6145;50.192;10.064;2024-03-08T02:16:25;1.70;91.70
12164;DHT22;6145;50.192;10.064;2024-03-08T02:18:52;2.20;91.60
12164;DHT22;6145;50.192;10.064;2024-03-08T02:21:20;1.70;91.40
12164;DHT22;6145;50.192;10.064;2024-03-08T02:23:47;1.60;91.40
12164;DHT22;6145;50.192;10.064;2024-03-08T02:26:14;1.60;91.50
12164;DHT22;6145;50.192;10.064;2024-03-08T02:28:41;1.60;91.60
12164;DHT22;6145;50.192;10.064;2024-03-08T02:31:09;1.50;91.60
12164;DHT22;6145;50.192;10.064;2024-03-08T02:33:36;1.50;91.70
12164;DHT22;6145;50.192;10.064;2024-03-08T02:36:03;1.50;91.70
12164;DHT22;6145;50.192;10.064;2024-03-08T02:38:33;1.60;91.80
12164;DHT22;6145;50.192;10.064;2024-03-08T02:41:00;1.50;91.70
12164;DHT22;6145;50.192;10.064;2024-03-08T02:43:26;1.50;91.70
12164;DHT22;6145;50.192;10.064;2024-03-08T02:45:53;1.50;91.80
12164;DHT22;6145;50.192;10.064;2024-03-08T02:48:20;1.40;91.80
12164;DHT22;6145;50.192;10.064;2024-03-08T02:50:47;1.50;91.80
12164;DHT22;6145;50.192;10.064;2024-03-08T02:53:16;1.50;91.70
12164;DHT22;6145;50.192;10.064;2024-03-08T02:55:45;1.50;91.70
12164;DHT22;6145;50.192;10.064;2024-03-08T02:58:12;1.40;91.70
12164;DHT22;6145;50.192;10.064;2024-03-08T03:00:40;1.40;91.70
12164;DHT22;6145;50.192;10.064;2024-03-08T03:03:07;1.40;91.90
12164;DHT22;6145;50.192;10.064;2024-03-08T03:05:34;1.40;91.90
12164;DHT22;6145;50.192;10.064;2024-03-08T03:08:00;1.40;91.90
12164;DHT22;6145;50.192;10.064;2024-03-08T03:10:29;1.30;91.90
12164;DHT22;6145;50.192;10.064;2024-03-08T03:12:57;1.30;92.00
12164;DHT22;6145;50.192;10.064;2024-03-08T03:15:24;1.30;92.00
12164;DHT22;6145;50.192;10.064;2024-03-08T03:17:51;1.30;92.00
12164;DHT22;6145;50.192;10.064;2024-03-08T03:20:18;1.30;92.00
12164;DHT22;6145;50.192;10.064;2024-03-08T03:22:51;1.30;92.00
12164;DHT22;6145;50.192;10.064;2024-03-08T03:25:19;1.30;92.00
12164;DHT22;6145;50.192;10.064;2024-03-08T03:27:51;1.30;92.00
12164;DHT22;6145;50.192;10.064;2024-03-08T03:30:19;1.20;92.00
12164;DHT22;6145;50.192;10.064;2024-03-08T03:32:47;1.20;92.00
12164;DHT22;6145;50.192;10.064;2024-03-08T03:35:17;1.20;92.00
12164;DHT22;6145;50.192;10.064;2024-03-08T03:37:44;1.10;92.00
12164;DHT22;6145;50.192;10.064;2024-03-08T03:40:26;1.20;92.20
12164;DHT22;6145;50.192;10.064;2024-03-08T03:42:53;1.10;92.30
12164;DHT22;6145;50.192;10.064;2024-03-08T03:45:21;1.10;92.40
12164;DHT22;6145;50.192;10.064;2024-03-08T03:47:48;1.10;92.40
12164;DHT22;6145;50.192;10.064;2024-03-08T03:50:15;1.10;92.50
12164;DHT22;6145;50.192;10.064;2024-03-08T03:52:44;1.10;92.50
12164;DHT22;6145;50.192;10.064;2024-03-08T03:55:11;1.10;92.60
12164;DHT22;6145;50.192;10.064;2024-03-08T03:57:38;1.10;92.60
12164;DHT22;6145;50.192;10.064;2024-03-08T04:00:06;1.10;92.70
12164;DHT22;6145;50.192;10.064;2024-03-08T04:02:37;1.00;92.70
12164;DHT22;6145;50.192;10.064;2024-03-08T04:05:04;1.00;92.70
12164;DHT22;6145;50.192;10.064;2024-03-08T04:07:31;1.00;92.70
12164;DHT22;6145;50.192;10.064;2024-03-08T04:09:58;1.00;92.70
12164;DHT22;6145;50.192;10.064;2024-03-08T04:12:25;1.00;92.70
12164;DHT22;6145;50.192;10.064;2024-03-08T04:14:52;1.00;92.60
12164;DHT22;6145;50.192;10.064;2024-03-08T04:17:18;1.00;92.60
12164;DHT22;6145;50.192;10.064;2024-03-08T04:19:47;0.90;92.60
12164;DHT22;6145;50.192;10.064;2024-03-08T04:22:14;0.90;92.70
12164;DHT22;6145;50.192;10.064;2024-03-08T04:24:43;0.80;92.70
12164;DHT22;6145;50.192;10.064;2024-03-08T04:27:10;0.80;92.70
12164;DHT22;6145;50.192;10.064;2024-03-08T04:29:37;0.80;92.70
12164;DHT22;6145;50.192;10.064;2024-03-08T04:32:05;0.80;92.70
12164;DHT22;6145;50.192;10.064;2024-03-08T04:34:32;0.80;92.80
12164;DHT22;6145;50.192;10.064;2024-03-08T04:37:00;0.70;92.70
12164;DHT22;6145;50.192;10.064;2024-03-08T04:39:27;0.70;92.60
12164;DHT22;6145;50.192;10.064;2024-03-08T04:41:55;0.70;92.70
12164;DHT22;6145;50.192;10.064;2024-03-08T04:44:23;0.60;92.70
12164;DHT22;6145;50.192;10.064;2024-03-08T04:46:50;0.60;92.80
12164;DHT22;6145;50.192;10.064;2024-03-08T04:49:16;0.60;92.80
12164;DHT22;6145;50.192;10.064;2024-03-08T04:51:43;0.60;93.00
12164;DHT22;6145;50.192;10.064;2024-03-08T04:54:12;0.60;93.00
12164;DHT22;6145;50.192;10.064;2024-03-08T04:56:39;0.60;93.00
12164;DHT22;6145;50.192;10.064;2024-03-08T04:59:06;0.60;93.00
12164;DHT22;6145;50.192;10.064;2024-03-08T05:01:34;0.60;93.00
12164;DHT22;6145;50.192;10.064;2024-03-08T05:04:03;0.60;93.10
12164;DHT22;6145;50.192;10.064;2024-03-08T05:06:31;0.50;93.00
12164;DHT22;6145;50.192;10.064;2024-03-08T05:08:58;0.50;93.10
12164;DHT22;6145;50.192;10.064;2024-03-08T05:11:26;0.60;93.20
12164;DHT22;6145;50.192;10.064;2024-03-08T05:13:53;0.60;93.40
12164;DHT22;6145;50.192;10.064;2024-03-08T05:16:21;0.60;93.70
12164;DHT22;6145;50.192;10.064;2024-03-08T05:18:49;0.60;93.80
12164;DHT22;6145;50.192;10.064;2024-03-08T05:21:16;0.70;93.90
12164;DHT22;6145;50.192;10.064;2024-03-08T05:23:45;0.70;93.90
12164;DHT22;6145;50.192;10.064;2024-03-08T05:26:12;0.80;93.80
12164;DHT22;6145;50.192;10.064;2024-03-08T05:28:41;0.80;93.70
12164;DHT22;6145;50.192;10.064;2024-03-08T05:31:07;0.80;93.80
12164;DHT22;6145;50.192;10.064;2024-03-08T05:33:34;0.90;93.80
12164;DHT22;6145;50.192;10.064;2024-03-08T05:36:01;0.80;93.70
12164;DHT22;6145;50.192;10.064;2024-03-08T05:38:28;0.90;93.60
12164;DHT22;6145;50.192;10.064;2024-03-08T05:40:55;0.90;93.60
12164;DHT22;6145;50.192;10.064;2024-03-08T05:43:21;0.90;93.60
12164;DHT22;6145;50.192;10.064;2024-03-08T05:45:49;0.80;93.60
12164;DHT22;6145;50.192;10.064;2024-03-08T05:48:15;0.90;93.70
12164;DHT22;6145;50.192;10.064;2024-03-08T05:50:44;0.90;93.70
12164;DHT22;6145;50.192;10.064;2024-03-08T05:53:10;1.00;93.70
12164;DHT22;6145;50.192;10.064;2024-03-08T05:55:38;1.00;93.60
12164;DHT22;6145;50.192;10.064;2024-03-08T05:58:06;1.00;93.60
12164;DHT22;6145;50.192;10.064;2024-03-08T06:00:33;1.00;93.60
12164;DHT22;6145;50.192;10.064;2024-03-08T06:03:03;1.00;93.60
12164;DHT22;6145;50.192;10.064;2024-03-08T06:05:30;1.10;93.60
12164;DHT22;6145;50.192;10.064;2024-03-08T06:07:56;1.00;93.60
12164;DHT22;6145;50.192;10.064;2024-03-08T06:10:23;1.10;93.90
12164;DHT22;6145;50.192;10.064;2024-03-08T06:12:50;1.00;93.60
12164;DHT22;6145;50.192;10.064;2024-03-08T06:15:17;1.00;93.50
12164;DHT22;6145;50.192;10.064;2024-03-08T06:17:43;1.10;93.50
12164;DHT22;6145;50.192;10.064;2024-03-08T06:20:12;1.20;93.50
12164;DHT22;6145;50.192;10.064;2024-03-08T06:22:39;1.20;93.50
12164;DHT22;6145;50.192;10.064;2024-03-08T06:25:07;1.20;93.50
12164;DHT22;6145;50.192;10.064;2024-03-08T06:27:33;1.30;93.50
12164;DHT22;6145;50.192;10.064;2024-03-08T06:30:00;1.30;93.50
12164;DHT22;6145;50.192;10.064;2024-03-08T06:32:27;1.40;93.50
12164;DHT22;6145;50.192;10.064;2024-03-08T06:34:54;1.50;93.40
12164;DHT22;6145;50.192;10.064;2024-03-08T06:37:22;1.50;93.30
12164;DHT22;6145;50.192;10.064;2024-03-08T06:39:49;1.60;93.30
12164;DHT22;6145;50.192;10.064;2024-03-08T06:42:16;1.60;93.20
12164;DHT22;6145;50.192;10.064;2024-03-08T06:44:43;1.70;93.30
12164;DHT22;6145;50.192;10.064;2024-03-08T06:47:15;1.70;93.20
12164;DHT22;6145;50.192;10.064;2024-03-08T06:49:42;1.80;93.10
12164;DHT22;6145;50.192;10.064;2024-03-08T06:52:09;1.80;93.00
12164;DHT22;6145;50.192;10.064;2024-03-08T06:54:37;1.90;92.90
12164;DHT22;6145;50.192;10.064;2024-03-08T06:57:05;1.90;93.00
12164;DHT22;6145;50.192;10.064;2024-03-08T06:59:32;2.10;93.00
12164;DHT22;6145;50.192;10.064;2024-03-08T07:02:01;2.00;92.80
12164;DHT22;6145;50.192;10.064;2024-03-08T07:04:27;2.10;92.80
12164;DHT22;6145;50.192;10.064;2024-03-08T07:06:55;2.20;92.80
12164;DHT22;6145;50.192;10.064;2024-03-08T07:09:23;2.20;92.50
12164;DHT22;6145;50.192;10.064;2024-03-08T07:11:51;2.20;92.60
12164;DHT22;6145;50.192;10.064;2024-03-08T07:14:21;2.30;92.50
12164;DHT22;6145;50.192;10.064;2024-03-08T07:16:48;2.40;92.70
12164;DHT22;6145;50.192;10.064;2024-03-08T07:19:15;3.90;92.70
12164;DHT22;6145;50.192;10.064;2024-03-08T07:21:42;5.30;91.20
12164;DHT22;6145;50.192;10.064;2024-03-08T07:24:09;5.80;90.00
12164;DHT22;6145;50.192;10.064;2024-03-08T07:26:54;6.40;89.30
12164;DHT22;6145;50.192;10.064;2024-03-08T07:29:21;7.10;86.60
12164;DHT22;6145;50.192;10.064;2024-03-08T07:31:48;7.60;84.40
12164;DHT22;6145;50.192;10.064;2024-03-08T07:34:21;7.60;82.90
12164;DHT22;6145;50.192;10.064;2024-03-08T07:36:48;7.60;82.50
12164;DHT22;6145;50.192;10.064;2024-03-08T07:39:16;7.30;82.90
12164;DHT22;6145;50.192;10.064;2024-03-08T07:41:43;6.90;83.60
12164;DHT22;6145;50.192;10.064;2024-03-08T07:44:11;6.80;82.90
12164;DHT22;6145;50.192;10.064;2024-03-08T07:46:39;6.70;82.80
12164;DHT22;6145;50.192;10.064;2024-03-08T07:49:07;6.70;82.00
12164;DHT22;6145;50.192;10.064;2024-03-08T07:51:36;7.00;82.50
12164;DHT22;6145;50.192;10.064;2024-03-08T07:54:03;7.60;80.40
12164;DHT22;6145;50.192;10.064;2024-03-08T07:56:30;8.40;79.20
12164;DHT22;6145;50.192;10.064;2024-03-08T07:58:57;9.40;77.80
12164;DHT22;6145;50.192;10.064;2024-03-08T08:01:25;10.60;74.30
12164;DHT22;6145;50.192;10.064;2024-03-08T08:03:51;11.40;72.10
12164;DHT22;6145;50.192;10.064;2024-03-08T08:06:18;12.20;70.60
12164;DHT22;6145;50.192;10.064;2024-03-08T08:08:45;12.50;66.90
12164;DHT22;6145;50.192;10.064;2024-03-08T08:11:14;12.70;64.60
12164;DHT22;6145;50.192;10.064;2024-03-08T08:13:41;12.50;63.50
12164;DHT22;6145;50.192;10.064;2024-03-08T08:16:08;12.70;64.90
12164;DHT22;6145;50.192;10.064;2024-03-08T08:18:37;13.80;64.50
12164;DHT22;6145;50.192;10.064;2024-03-08T08:21:05;13.40;62.00
12164;DHT22;6145;50.192;10.064;2024-03-08T08:23:31;13.60;61.50
12164;DHT22;6145;50.192;10.064;2024-03-08T08:25:58;14.80;60.20
12164;DHT22;6145;50.192;10.064;2024-03-08T08:28:25;14.10;59.80
12164;DHT22;6145;50.192;10.064;2024-03-08T08:30:53;14.40;58.10
12164;DHT22;6145;50.192;10.064;2024-03-08T08:33:20;14.90;58.30
12164;DHT22;6145;50.192;10.064;2024-03-08T08:35:48;15.40;56.80
12164;DHT22;6145;50.192;10.064;2024-03-08T08:38:19;15.60;55.70
12164;DHT22;6145;50.192;10.064;2024-03-08T08:40:46;15.70;55.20
12164;DHT22;6145;50.192;10.064;2024-03-08T08:43:14;15.80;52.90
12164;DHT22;6145;50.192;10.064;2024-03-08T08:45:40;15.40;53.70
12164;DHT22;6145;50.192;10.064;2024-03-08T08:48:08;15.40;54.30
12164;DHT22;6145;50.192;10.064;2024-03-08T08:50:35;15.50;52.80
12164;DHT22;6145;50.192;10.064;2024-03-08T08:53:04;15.20;53.20
12164;DHT22;6145;50.192;10.064;2024-03-08T08:55:32;15.40;53.50
12164;DHT22;6145;50.192;10.064;2024-03-08T08:58:01;15.70;52.60
12164;DHT22;6145;50.192;10.064;2024-03-08T09:00:28;15.60;51.00
12164;DHT22;6145;50.192;10.064;2024-03-08T09:02:56;15.50;51.90
12164;DHT22;6145;50.192;10.064;2024-03-08T09:05:24;15.30;51.60
12164;DHT22;6145;50.192;10.064;2024-03-08T09:07:51;14.90;52.60
12164;DHT22;6145;50.192;10.064;2024-03-08T09:10:20;14.60;52.70
12164;DHT22;6145;50.192;10.064;2024-03-08T09:12:47;14.40;54.10
12164;DHT22;6145;50.192;10.064;2024-03-08T09:15:14;14.80;54.00
12164;DHT22;6145;50.192;10.064;2024-03-08T09:17:46;15.00;52.30
12164;DHT22;6145;50.192;10.064;2024-03-08T09:20:14;14.60;52.80
12164;DHT22;6145;50.192;10.064;2024-03-08T09:22:43;14.70;53.40
12164;DHT22;6145;50.192;10.064;2024-03-08T09:25:10;14.90;53.30
12164;DHT22;6145;50.192;10.064;2024-03-08T09:27:38;14.90;53.40
12164;DHT22;6145;50.192;10.064;2024-03-08T09:30:07;15.40;51.80
12164;DHT22;6145;50.192;10.064;2024-03-08T09:32:34;15.70;50.50
12164;DHT22;6145;50.192;10.064;2024-03-08T09:35:02;15.60;50.50
12164;DHT22;6145;50.192;10.064;2024-03-08T09:37:29;15.70;50.50
12164;DHT22;6145;50.192;10.064;2024-03-08T09:39:56;15.70;50.00
12164;DHT22;6145;50.192;10.064;2024-03-08T09:42:24;15.70;50.20
12164;DHT22;6145;50.192;10.064;2024-03-08T09:44:52;15.70;50.00
12164;DHT22;6145;50.192;10.064;2024-03-08T09:47:22;15.90;50.10
12164;DHT22;6145;50.192;10.064;2024-03-08T09:49:54;16.00;51.00
12164;DHT22;6145;50.192;10.064;2024-03-08T09:52:21;16.10;49.60
12164;DHT22;6145;50.192;10.064;2024-03-08T09:54:48;16.20;48.90
12164;DHT22;6145;50.192;10.064;2024-03-08T09:57:15;16.70;49.00
12164;DHT22;6145;50.192;10.064;2024-03-08T09:59:42;17.00;47.50
12164;DHT22;6145;50.192;10.064;2024-03-08T10:02:16;16.80;46.90
12164;DHT22;6145;50.192;10.064;2024-03-08T10:04:43;16.60;47.00
12164;DHT22;6145;50.192;10.064;2024-03-08T10:07:11;16.00;47.70
12164;DHT22;6145;50.192;10.064;2024-03-08T10:09:38;15.90;49.50
12164;DHT22;6145;50.192;10.064;2024-03-08T10:12:07;16.50;49.70
12164;DHT22;6145;50.192;10.064;2024-03-08T10:14:39;17.00;48.90
12164;DHT22;6145;50.192;10.064;2024-03-08T10:17:06;17.40;47.40
12164;DHT22;6145;50.192;10.064;2024-03-08T10:19:34;17.30;46.70
12164;DHT22;6145;50.192;10.064;2024-03-08T10:22:01;17.20;46.70
12164;DHT22;6145;50.192;10.064;2024-03-08T10:24:30;17.10;47.00
12164;DHT22;6145;50.192;10.064;2024-03-08T10:26:59;17.00;46.30
12164;DHT22;6145;50.192;10.064;2024-03-08T10:29:27;16.70;45.20
12164;DHT22;6145;50.192;10.064;2024-03-08T10:31:54;16.20;47.30
12164;DHT22;6145;50.192;10.064;2024-03-08T10:34:22;16.00;46.90
12164;DHT22;6145;50.192;10.064;2024-03-08T10:36:51;15.50;47.50
12164;DHT22;6145;50.192;10.064;2024-03-08T10:39:22;15.50;48.90
12164;DHT22;6145;50.192;10.064;2024-03-08T10:41:53;15.90;49.60
12164;DHT22;6145;50.192;10.064;2024-03-08T10:44:36;16.30;48.90
12164;DHT22;6145;50.192;10.064;2024-03-08T10:47:14;16.50;47.40
12164;DHT22;6145;50.192;10.064;2024-03-08T10:49:54;16.30;46.90
12164;DHT22;6145;50.192;10.064;2024-03-08T10:52:22;16.60;47.30
12164;DHT22;6145;50.192;10.064;2024-03-08T10:54:52;16.20;47.10
12164;DHT22;6145;50.192;10.064;2024-03-08T10:57:22;15.90;47.80
12164;DHT22;6145;50.192;10.064;2024-03-08T10:59:50;15.80;48.20
12164;DHT22;6145;50.192;10.064;2024-03-08T11:02:19;16.00;47.30
12164;DHT22;6145;50.192;10.064;2024-03-08T11:04:47;16.00;48.50
12164;DHT22;6145;50.192;10.064;2024-03-08T11:07:20;15.90;48.70
12164;DHT22;6145;50.192;10.064;2024-03-08T11:09:49;15.90;49.40
12164;DHT22;6145;50.192;10.064;2024-03-08T11:12:22;15.80;48.30
12164;DHT22;6145;50.192;10.064;2024-03-08T11:14:51;14.60;48.60
12164;DHT22;6145;50.192;10.064;2024-03-08T11:17:21;14.90;49.20
12164;DHT22;6145;50.192;10.064;2024-03-08T11:19:48;15.30;50.30
12164;DHT22;6145;50.192;10.064;2024-03-08T11:22:22;15.70;48.70
12164;DHT22;6145;50.192;10.064;2024-03-08T11:24:53;15.80;48.70
12164;DHT22;6145;50.192;10.064;2024-03-08T11:27:29;15.80;48.90
12164;DHT22;6145;50.192;10.064;2024-03-08T11:30:03;15.70;49.00
12164;DHT22;6145;50.192;10.064;2024-03-08T11:32:43;15.70;49.00
12164;DHT22;6145;50.192;10.064;2024-03-08T11:35:18;16.90;49.30
12164;DHT22;6145;50.192;10.064;2024-03-08T11:37:45;15.60;49.40
12164;DHT22;6145;50.192;10.064;2024-03-08T11:40:15;16.00;48.30
12164;DHT22;6145;50.192;10.064;2024-03-08T11:42:44;16.30;47.70
12164;DHT22;6145;50.192;10.064;2024-03-08T11:45:13;16.20;48.30
12164;DHT22;6145;50.192;10.064;2024-03-08T11:47:42;16.10;47.50
12164;DHT22;6145;50.192;10.064;2024-03-08T11:50:12;15.90;48.70
12164;DHT22;6145;50.192;10.064;2024-03-08T11:52:39;16.00;47.90
12164;DHT22;6145;50.192;10.064;2024-03-08T11:55:07;15.90;48.10
12164;DHT22;6145;50.192;10.064;2024-03-08T11:57:36;16.00;48.00
12164;DHT22;6145;50.192;10.064;2024-03-08T12:00:04;16.10;49.20
12164;DHT22;6145;50.192;10.064;2024-03-08T12:02:33;16.60;48.50
12164;DHT22;6145;50.192;10.064;2024-03-08T12:05:04;16.70;46.50
12164;DHT22;6145;50.192;10.064;2024-03-08T12:07:35;17.00;45.00
12164;DHT22;6145;50.192;10.064;2024-03-08T12:10:15;17.00;45.70
12164;DHT22;6145;50.192;10.064;2024-03-08T12:12:45;17.10;45.70
12164;DHT22;6145;50.192;10.064;2024-03-08T12:15:12;17.10;45.70
12164;DHT22;6145;50.192;10.064;2024-03-08T12:17:40;17.10;45.70
12164;DHT22;6145;50.192;10.064;2024-03-08T12:20:16;17.10;45.40
12164;DHT22;6145;50.192;10.064;2024-03-08T12:22:43;17.20;45.20
12164;DHT22;6145;50.192;10.064;2024-03-08T12:25:11;17.10;45.70
12164;DHT22;6145;50.192;10.064;2024-03-08T12:27:39;17.50;45.20
12164;DHT22;6145;50.192;10.064;2024-03-08T12:30:19;17.60;44.10
12164;DHT22;6145;50.192;10.064;2024-03-08T12:32:53;17.20;43.60
12164;DHT22;6145;50.192;10.064;2024-03-08T12:35:22;16.90;44.90
12164;DHT22;6145;50.192;10.064;2024-03-08T12:37:50;17.10;44.50
12164;DHT22;6145;50.192;10.064;2024-03-08T12:40:19;16.80;44.60
12164;DHT22;6145;50.192;10.064;2024-03-08T12:42:46;16.70;45.60
12164;DHT22;6145;50.192;10.064;2024-03-08T12:45:14;16.80;44.80
12164;DHT22;6145;50.192;10.064;2024-03-08T12:47:42;16.70;43.90
12164;DHT22;6145;50.192;10.064;2024-03-08T12:50:10;16.40;44.90
12164;DHT22;6145;50.192;10.064;2024-03-08T12:52:37;16.00;45.50
12164;DHT22;6145;50.192;10.064;2024-03-08T12:55:04;16.10;46.00
12164;DHT22;6145;50.192;10.064;2024-03-08T12:57:33;16.60;45.60
12164;DHT22;6145;50.192;10.064;2024-03-08T13:00:01;16.90;45.50
12164;DHT22;6145;50.192;10.064;2024-03-08T13:02:29;17.10;44.20
12164;DHT22;6145;50.192;10.064;2024-03-08T13:04:58;16.70;44.50
12164;DHT22;6145;50.192;10.064;2024-03-08T13:07:25;16.60;45.70
12164;DHT22;6145;50.192;10.064;2024-03-08T13:09:53;16.50;45.80
12164;DHT22;6145;50.192;10.064;2024-03-08T13:12:20;16.20;46.10
12164;DHT22;6145;50.192;10.064;2024-03-08T13:14:47;15.50;47.10
12164;DHT22;6145;50.192;10.064;2024-03-08T13:17:14;15.50;48.10
12164;DHT22;6145;50.192;10.064;2024-03-08T13:19:41;15.50;47.90
12164;DHT22;6145;50.192;10.064;2024-03-08T13:22:09;15.80;48.40
12164;DHT22;6145;50.192;10.064;2024-03-08T13:24:38;16.10;47.70
12164;DHT22;6145;50.192;10.064;2024-03-08T13:27:06;16.50;47.30
12164;DHT22;6145;50.192;10.064;2024-03-08T13:29:42;16.50;46.30
12164;DHT22;6145;50.192;10.064;2024-03-08T13:32:09;16.20;47.70
12164;DHT22;6145;50.192;10.064;2024-03-08T13:34:37;16.10;47.40
12164;DHT22;6145;50.192;10.064;2024-03-08T13:37:04;16.00;46.60
12164;DHT22;6145;50.192;10.064;2024-03-08T13:39:33;15.90;46.90
12164;DHT22;6145;50.192;10.064;2024-03-08T13:42:06;15.80;46.80
12164;DHT22;6145;50.192;10.064;2024-03-08T13:44:35;15.30;46.90
12164;DHT22;6145;50.192;10.064;2024-03-08T13:47:02;15.10;48.00
12164;DHT22;6145;50.192;10.064;2024-03-08T13:49:30;15.00;47.70
12164;DHT22;6145;50.192;10.064;2024-03-08T13:51:57;14.90;48.50
12164;DHT22;6145;50.192;10.064;2024-03-08T13:54:25;14.80;48.30
12164;DHT22;6145;50.192;10.064;2024-03-08T13:56:54;14.90;48.20
12164;DHT22;6145;50.192;10.064;2024-03-08T13:59:21;14.90;49.00
12164;DHT22;6145;50.192;10.064;2024-03-08T14:01:48;15.00;48.10
12164;DHT22;6145;50.192;10.064;2024-03-08T14:04:15;14.90;48.00
12164;DHT22;6145;50.192;10.064;2024-03-08T14:06:43;14.90;48.70
12164;DHT22;6145;50.192;10.064;2024-03-08T14:09:10;15.20;49.00
12164;DHT22;6145;50.192;10.064;2024-03-08T14:11:42;15.20;47.80
12164;DHT22;6145;50.192;10.064;2024-03-08T14:14:11;15.30;48.10
12164;DHT22;6145;50.192;10.064;2024-03-08T14:16:38;15.10;48.10
12164;DHT22;6145;50.192;10.064;2024-03-08T14:19:05;15.00;47.50
12164;DHT22;6145;50.192;10.064;2024-03-08T14:21:32;14.80;47.50
12164;DHT22;6145;50.192;10.064;2024-03-08T14:23:59;14.50;47.50
12164;DHT22;6145;50.192;10.064;2024-03-08T14:26:26;14.20;48.30
12164;DHT22;6145;50.192;10.064;2024-03-08T14:28:53;14.10;48.90
12164;DHT22;6145;50.192;10.064;2024-03-08T14:31:22;14.00;49.10
12164;DHT22;6145;50.192;10.064;2024-03-08T14:33:51;14.20;48.30
12164;DHT22;6145;50.192;10.064;2024-03-08T14:36:18;14.20;48.50
12164;DHT22;6145;50.192;10.064;2024-03-08T14:38:45;14.40;48.10
12164;DHT22;6145;50.192;10.064;2024-03-08T14:41:12;14.10;48.20
12164;DHT22;6145;50.192;10.064;2024-03-08T14:43:42;13.90;48.70
12164;DHT22;6145;50.192;10.064;2024-03-08T14:46:10;13.90;49.10
12164;DHT22;6145;50.192;10.064;2024-03-08T14:48:41;13.70;49.20
12164;DHT22;6145;50.192;10.064;2024-03-08T14:51:07;13.70;49.00
12164;DHT22;6145;50.192;10.064;2024-03-08T14:53:36;13.40;49.40
12164;DHT22;6145;50.192;10.064;2024-03-08T14:56:06;13.90;50.50
12164;DHT22;6145;50.192;10.064;2024-03-08T14:58:33;14.10;48.80
12164;DHT22;6145;50.192;10.064;2024-03-08T15:01:00;13.90;47.90
12164;DHT22;6145;50.192;10.064;2024-03-08T15:03:27;13.80;48.60
12164;DHT22;6145;50.192;10.064;2024-03-08T15:05:55;13.90;48.60
12164;DHT22;6145;50.192;10.064;2024-03-08T15:08:22;13.80;48.40
12164;DHT22;6145;50.192;10.064;2024-03-08T15:10:50;13.70;49.20
12164;DHT22;6145;50.192;10.064;2024-03-08T15:13:19;13.60;48.80
12164;DHT22;6145;50.192;10.064;2024-03-08T15:15:49;13.50;49.20
12164;DHT22;6145;50.192;10.064;2024-03-08T15:18:21;14.00;49.70
12164;DHT22;6145;50.192;10.064;2024-03-08T15:20:51;13.60;49.40
12164;DHT22;6145;50.192;10.064;2024-03-08T15:23:19;14.40;50.20
12164;DHT22;6145;50.192;10.064;2024-03-08T15:25:47;13.10;49.90
12164;DHT22;6145;50.192;10.064;2024-03-08T15:28:14;12.90;49.80
12164;DHT22;6145;50.192;10.064;2024-03-08T15:30:43;12.80;50.50
12164;DHT22;6145;50.192;10.064;2024-03-08T15:33:12;12.90;50.50
12164;DHT22;6145;50.192;10.064;2024-03-08T15:35:41;13.30;51.10
12164;DHT22;6145;50.192;10.064;2024-03-08T15:38:12;13.10;51.20
12164;DHT22;6145;50.192;10.064;2024-03-08T15:40:42;12.80;51.20
12164;DHT22;6145;50.192;10.064;2024-03-08T15:43:08;12.80;50.60